createdAt,value
2022-10-03T00:00:36.772Z,5.80
2022-10-03T00:03:35.207Z,5.20
2022-10-03T00:06:12.039Z,5.87
2022-10-03T00:09:05.586Z,5.60
2022-10-03T00:11:43.352Z,5.00
2022-10-03T00:14:19.619Z,4.93
2022-10-03T00:16:54.355Z,5.00
2022-10-03T00:19:36.917Z,4.70
2022-10-03T00:22:16.416Z,4.23
2022-10-03T00:24:58.243Z,5.50
2022-10-03T00:27:38.462Z,4.73
2022-10-03T00:30:21.093Z,4.30
2022-10-03T00:33:09.098Z,5.13
2022-10-03T00:35:50.409Z,5.43
2022-10-03T00:38:41.887Z,5.40
2022-10-03T00:41:53.724Z,6.37
2022-10-03T00:44:44.130Z,6.33
2022-10-03T00:47:40.379Z,6.87
2022-10-03T00:50:21.873Z,6.10
2022-10-03T00:53:13.116Z,6.53
2022-10-03T00:55:53.498Z,6.57
2022-10-03T00:58:46.277Z,5.83
2022-10-03T01:01:30.530Z,5.33
2022-10-03T01:04:17.120Z,4.87
2022-10-03T01:06:48.899Z,5.60
2022-10-03T01:09:30.447Z,5.43
2022-10-03T01:12:15.491Z,5.90
2022-10-03T01:15:15.575Z,4.57
2022-10-03T01:17:55.343Z,5.33
2022-10-03T01:20:37.072Z,5.23
2022-10-03T01:23:53.465Z,4.87
2022-10-03T01:26:37.496Z,4.17
2022-10-03T01:29:29.400Z,4.80
2022-10-03T01:32:05.490Z,4.00
2022-10-03T01:34:42.711Z,4.07
2022-10-03T01:37:15.443Z,3.57
2022-10-03T01:39:51.843Z,3.70
2022-10-03T01:42:31.781Z,3.83
2022-10-03T01:45:13.108Z,4.33
2022-10-03T01:47:51.412Z,4.43
2022-10-03T01:50:28.961Z,4.70
2022-10-03T01:53:04.982Z,3.60
2022-10-03T01:55:41.535Z,4.03
2022-10-03T01:58:14.101Z,4.57
2022-10-03T02:00:51.179Z,4.13
2022-10-03T02:03:27.685Z,4.37
2022-10-03T02:06:01.766Z,5.13
2022-10-03T02:08:43.044Z,5.03
2022-10-03T02:11:22.548Z,4.60
2022-10-03T02:13:54.398Z,5.20
2022-10-03T02:16:34.681Z,5.40
2022-10-03T02:19:11.978Z,5.90
2022-10-03T02:21:49.079Z,6.47
2022-10-03T02:24:32.443Z,5.13
2022-10-03T02:27:41.399Z,5.37
2022-10-03T02:30:20.976Z,7.50
2022-10-03T02:33:33.045Z,6.93
2022-10-03T02:36:32.034Z,7.20
2022-10-03T02:39:28.826Z,7.70
2022-10-03T02:42:32.698Z,7.33
2022-10-03T02:45:28.262Z,8.07
2022-10-03T02:48:31.640Z,8.30
2022-10-03T02:51:36.795Z,9.23
2022-10-03T02:54:41.343Z,8.80
2022-10-03T02:57:42.988Z,9.23
2022-10-03T03:00:15.247Z,9.43
2022-10-03T03:03:13.538Z,9.53
2022-10-03T03:06:09.850Z,11.17
2022-10-03T03:09:01.418Z,9.63
2022-10-03T03:12:05.461Z,9.97
2022-10-03T03:14:59.091Z,11.03
2022-10-03T03:17:35.133Z,9.67
2022-10-03T03:20:35.710Z,10.30
2022-10-03T03:23:16.107Z,10.93
2022-10-03T03:26:12.274Z,10.20
2022-10-03T03:28:55.700Z,10.33
2022-10-03T03:31:31.800Z,9.57
2022-10-03T03:34:08.119Z,10.17
2022-10-03T03:36:44.392Z,9.37
2022-10-03T03:39:28.818Z,10.03
2022-10-03T03:42:12.292Z,10.97
2022-10-03T03:45:05.820Z,9.63
2022-10-03T03:47:55.486Z,8.43
2022-10-03T03:50:48.460Z,10.23
2022-10-03T03:53:48.155Z,9.10
2022-10-03T03:56:42.594Z,9.27
2022-10-03T03:59:23.059Z,8.87
2022-10-03T04:02:06.497Z,8.10
2022-10-03T04:04:52.187Z,7.97
2022-10-03T04:07:32.885Z,8.90
2022-10-03T04:10:25.979Z,8.53
2022-10-03T04:13:22.583Z,7.40
2022-10-03T04:16:06.527Z,6.40
2022-10-03T04:18:58.049Z,6.60
2022-10-03T04:21:58.009Z,6.53
2022-10-03T04:24:39.830Z,5.40
2022-10-03T04:27:32.070Z,6.00
2022-10-03T04:30:09.005Z,6.50
2022-10-03T04:33:03.111Z,5.53
2022-10-03T04:35:54.219Z,5.90
2022-10-03T04:38:39.731Z,5.77
2022-10-03T04:41:17.886Z,5.20
2022-10-03T04:43:53.902Z,4.80
2022-10-03T04:46:31.164Z,5.10
2022-10-03T04:49:07.949Z,5.50
2022-10-03T04:51:45.655Z,5.50
2022-10-03T04:54:23.154Z,5.00
2022-10-03T04:56:57.988Z,4.83
2022-10-03T04:59:48.290Z,5.00
2022-10-03T05:02:36.266Z,4.67
2022-10-03T05:05:19.903Z,5.00
2022-10-03T05:07:54.611Z,5.00
2022-10-03T05:10:31.962Z,4.30
2022-10-03T05:13:08.553Z,3.87
2022-10-03T05:15:50.504Z,4.03
2022-10-03T05:18:26.806Z,4.30
2022-10-03T05:20:58.897Z,3.50
2022-10-03T05:23:35.737Z,4.20
2022-10-03T05:26:42.973Z,4.10
2022-10-03T05:29:07.089Z,4.67
2022-10-03T05:31:58.007Z,3.97
2022-10-03T05:34:41.391Z,4.23
2022-10-03T05:37:36.011Z,4.40
2022-10-03T05:40:09.034Z,4.13
2022-10-03T05:42:43.266Z,4.07
2022-10-03T05:45:24.507Z,4.70
2022-10-03T05:48:10.485Z,4.33
2022-10-03T05:51:06.860Z,4.80
2022-10-03T05:54:01.100Z,4.07
2022-10-03T05:56:48.940Z,4.70
2022-10-03T05:59:45.414Z,4.40
2022-10-03T06:02:45.685Z,4.53
2022-10-03T06:05:23.961Z,4.27
2022-10-03T06:08:17.420Z,4.90
2022-10-03T06:10:50.835Z,5.17
2022-10-03T06:13:30.509Z,5.40
2022-10-03T06:16:06.579Z,5.07
2022-10-03T06:19:08.071Z,5.23
2022-10-03T06:22:11.303Z,5.50
2022-10-03T06:25:16.119Z,5.20
2022-10-03T06:28:40.995Z,4.93
2022-10-03T06:31:39.876Z,5.33
2022-10-03T06:34:27.413Z,6.07
2022-10-03T06:37:31.907Z,5.80
2022-10-03T06:40:32.091Z,5.87
2022-10-03T06:43:22.035Z,5.60
2022-10-03T06:46:19.095Z,5.97
2022-10-03T06:49:20.466Z,6.67
2022-10-03T06:52:07.055Z,6.30
2022-10-03T06:55:07.864Z,6.27
2022-10-03T06:58:10.500Z,6.10
2022-10-03T07:00:52.753Z,5.70
2022-10-03T07:03:43.758Z,6.30
2022-10-03T07:06:40.373Z,7.40
2022-10-03T07:09:46.664Z,7.60
2022-10-03T07:12:58.071Z,7.47
2022-10-03T07:19:10.751Z,7.87
2022-10-03T07:22:14.394Z,8.13
2022-10-03T07:25:27.033Z,6.40
2022-10-03T07:28:23.420Z,7.30
2022-10-03T07:31:03.501Z,7.83
2022-10-03T07:34:08.698Z,7.63
2022-10-03T07:37:32.866Z,7.70
2022-10-03T07:40:20.621Z,8.00
2022-10-03T07:43:30.952Z,8.03
2022-10-03T07:46:31.426Z,8.50
2022-10-03T07:49:28.544Z,7.90
2022-10-03T07:52:23.380Z,7.90
2022-10-03T07:55:21.640Z,7.97
2022-10-03T07:58:18.232Z,7.33
2022-10-03T08:01:17.426Z,8.40
2022-10-03T08:04:20.944Z,7.80
2022-10-03T08:06:56.431Z,8.00
2022-10-03T08:09:43.437Z,8.20
2022-10-03T08:12:33.671Z,7.37
2022-10-03T08:15:23.806Z,7.10
2022-10-03T08:18:27.852Z,6.63
2022-10-03T08:20:57.568Z,6.40
2022-10-03T08:23:58.089Z,6.83
2022-10-03T08:26:39.528Z,5.60
2022-10-03T08:29:33.317Z,7.47
2022-10-03T08:32:48.566Z,7.50
2022-10-03T08:35:43.121Z,6.60
2022-10-03T08:38:47.318Z,5.87
2022-10-03T08:41:47.474Z,6.13
2022-10-03T08:44:58.613Z,7.13
2022-10-03T08:48:10.503Z,6.80
2022-10-03T08:50:53.819Z,6.80
2022-10-03T08:54:01.409Z,6.40
2022-10-03T08:56:44.032Z,6.73
2022-10-03T08:59:50.105Z,5.97
2022-10-03T09:03:28.239Z,5.40
2022-10-03T09:06:58.709Z,6.57
2022-10-03T09:10:01.246Z,6.70
2022-10-03T09:12:58.915Z,5.80
2022-10-03T09:15:53.452Z,5.83
2022-10-03T09:18:55.357Z,6.17
2022-10-03T09:21:56.619Z,5.90
2022-10-03T09:24:51.575Z,5.30
2022-10-03T09:27:35.447Z,4.97
2022-10-03T09:30:23.100Z,4.63
2022-10-03T09:33:28.955Z,4.80
2022-10-03T09:36:24.349Z,4.40
2022-10-03T09:39:13.989Z,4.77
2022-10-03T09:42:17.382Z,4.90
2022-10-03T09:45:12.979Z,4.73
2022-10-03T09:48:14.177Z,4.87
2022-10-03T09:51:18.302Z,4.70
2022-10-03T09:54:29.104Z,5.47
2022-10-03T09:57:14.696Z,4.40
2022-10-03T09:59:59.776Z,4.47
2022-10-03T10:03:11.803Z,3.90
2022-10-03T10:06:12.261Z,3.70
2022-10-03T10:09:20.041Z,3.67
2022-10-03T10:12:12.021Z,3.70
2022-10-03T10:15:00.086Z,3.20
2022-10-03T10:17:57.432Z,3.33
2022-10-03T10:20:39.723Z,3.67
2022-10-03T10:23:30.939Z,4.90
2022-10-03T10:27:02.004Z,3.77
2022-10-03T10:30:03.197Z,4.27
2022-10-03T10:33:14.264Z,3.73
2022-10-03T10:36:11.004Z,3.80
2022-10-03T10:39:34.595Z,4.07
2022-10-03T10:42:36.245Z,4.50
2022-10-03T10:45:52.521Z,4.97
2022-10-03T10:49:03.506Z,3.80
2022-10-03T10:52:21.172Z,3.03
2022-10-03T10:55:31.447Z,3.80
2022-10-03T10:59:06.481Z,4.00
2022-10-03T11:02:11.363Z,3.60
2022-10-03T11:05:34.425Z,3.37
2022-10-03T11:08:39.971Z,3.17
2022-10-03T11:11:41.762Z,3.37
2022-10-03T11:15:01.809Z,3.00
2022-10-03T11:17:44.604Z,3.00
2022-10-03T11:21:05.828Z,3.27
2022-10-03T11:24:20.150Z,2.97
2022-10-03T11:27:27.764Z,2.73
2022-10-03T11:30:23.247Z,2.83
2022-10-03T11:33:27.071Z,3.07
2022-10-03T11:36:28.891Z,3.00
2022-10-03T11:39:04.595Z,3.10
2022-10-03T11:41:41.727Z,2.53
2022-10-03T11:44:26.895Z,2.93
2022-10-03T11:47:23.836Z,2.90
2022-10-03T11:50:28.366Z,2.60
2022-10-03T11:53:30.192Z,2.80
2022-10-03T11:56:19.060Z,2.73
2022-10-03T11:59:03.972Z,2.90
2022-10-03T12:01:51.413Z,2.70
2022-10-03T12:04:29.193Z,3.00
2022-10-03T12:07:21.145Z,3.50
2022-10-03T12:10:12.406Z,2.93
2022-10-03T12:12:43.803Z,3.23
2022-10-03T12:15:34.390Z,2.97
2022-10-03T12:18:08.838Z,3.20
2022-10-03T12:20:59.246Z,3.87
2022-10-03T12:23:41.824Z,3.63
2022-10-03T12:26:17.992Z,3.50
2022-10-03T12:28:53.995Z,3.37
2022-10-03T12:31:26.406Z,3.07
2022-10-03T12:33:59.135Z,3.67
2022-10-03T12:36:31.182Z,3.60
2022-10-03T12:39:20.865Z,3.50
2022-10-03T12:42:17.267Z,3.10
2022-10-03T12:44:51.967Z,3.60
2022-10-03T12:47:54.273Z,2.80
2022-10-03T12:50:38.980Z,3.53
2022-10-03T12:53:23.926Z,3.90
2022-10-03T12:56:02.268Z,4.03
2022-10-03T12:58:53.735Z,3.33
2022-10-03T13:01:29.563Z,3.17
2022-10-03T13:04:01.591Z,3.73
2022-10-03T13:09:52.139Z,4.10
2022-10-03T13:12:28.517Z,3.70
2022-10-03T13:15:38.071Z,4.10
2022-10-03T13:18:19.119Z,4.00
2022-10-03T13:20:56.707Z,3.60
2022-10-03T13:23:35.851Z,3.90
2022-10-03T13:26:17.282Z,4.27
2022-10-03T13:29:13.171Z,4.00
2022-10-03T13:31:56.679Z,4.20
2022-10-03T13:34:30.646Z,4.27
2022-10-03T13:37:06.498Z,4.50
2022-10-03T13:39:46.479Z,4.20
2022-10-03T13:42:20.087Z,4.47
2022-10-03T13:44:54.435Z,4.20
2022-10-03T13:47:40.471Z,4.80
2022-10-03T13:50:17.615Z,4.43
2022-10-03T13:52:51.713Z,5.10
2022-10-03T13:55:27.876Z,4.47
2022-10-03T13:58:12.539Z,4.80
2022-10-03T14:00:55.315Z,4.60
2022-10-03T14:03:32.202Z,5.07
2022-10-03T14:06:17.209Z,4.40
2022-10-03T14:09:21.227Z,4.70
2022-10-03T14:12:01.786Z,4.47
2022-10-03T14:14:44.037Z,4.63
2022-10-03T14:17:15.944Z,4.53
2022-10-03T14:19:59.651Z,4.70
2022-10-03T14:22:50.045Z,5.13
2022-10-03T14:25:24.106Z,5.47
2022-10-03T14:27:54.803Z,5.00
2022-10-03T14:30:24.790Z,5.83
2022-10-03T14:33:10.837Z,5.63
2022-10-03T14:35:43.830Z,5.57
2022-10-03T14:38:58.604Z,5.50
2022-10-03T14:41:37.181Z,5.17
2022-10-03T14:44:13.500Z,5.50
2022-10-03T14:46:47.934Z,4.70
2022-10-03T14:49:48.516Z,4.90
2022-10-03T14:52:16.841Z,4.63
2022-10-03T14:54:46.171Z,5.60
2022-10-03T14:57:27.215Z,5.80
2022-10-03T14:59:58.268Z,5.00
2022-10-03T15:02:32.576Z,5.00
2022-10-03T15:05:07.695Z,5.00
2022-10-03T15:07:39.047Z,5.17
2022-10-03T15:10:13.161Z,5.77
2022-10-03T15:12:45.051Z,5.73
2022-10-03T15:15:17.126Z,5.80
2022-10-03T15:17:48.063Z,5.10
2022-10-03T15:20:21.546Z,6.17
2022-10-03T15:22:53.412Z,5.60
2022-10-03T15:25:27.588Z,5.30
2022-10-03T15:27:58.558Z,5.60
2022-10-03T15:30:32.252Z,5.90
2022-10-03T15:33:08.015Z,5.73
2022-10-03T15:35:41.586Z,5.37
2022-10-03T15:38:15.197Z,6.17
2022-10-03T15:40:51.656Z,5.20
2022-10-03T15:43:33.090Z,5.20
2022-10-03T15:46:05.288Z,5.60
2022-10-03T15:48:34.786Z,5.03
2022-10-03T15:51:19.348Z,5.50
2022-10-03T15:53:49.756Z,5.13
2022-10-03T15:56:27.316Z,5.13
2022-10-03T15:58:57.064Z,5.63
2022-10-03T16:01:33.153Z,5.17
2022-10-03T16:04:03.506Z,5.53
2022-10-03T16:06:39.801Z,5.70
2022-10-03T16:09:15.339Z,6.27
2022-10-03T16:11:52.829Z,5.20
2022-10-03T16:14:24.991Z,5.27
2022-10-03T16:16:57.244Z,5.33
2022-10-03T16:19:39.321Z,6.33
2022-10-03T16:22:23.771Z,5.10
2022-10-03T16:25:10.296Z,5.90
2022-10-03T16:27:51.265Z,6.00
2022-10-03T16:30:23.048Z,5.50
2022-10-03T16:33:01.277Z,6.23
2022-10-03T16:35:34.751Z,5.97
2022-10-03T16:38:05.826Z,6.37
2022-10-03T16:40:37.711Z,6.00
2022-10-03T16:43:09.765Z,5.90
2022-10-03T16:45:42.919Z,5.20
2022-10-03T16:48:38.444Z,5.57
2022-10-03T16:51:10.287Z,5.80
2022-10-03T16:53:42.841Z,5.60
2022-10-03T16:56:16.259Z,6.20
2022-10-03T16:58:52.278Z,5.50
2022-10-03T17:01:29.693Z,5.73
2022-10-03T17:04:15.999Z,6.37
2022-10-03T17:06:48.778Z,5.83
2022-10-03T17:09:24.527Z,5.87
2022-10-03T17:11:56.270Z,6.20
2022-10-03T17:14:28.399Z,5.90
2022-10-03T17:17:02.916Z,6.00
2022-10-03T17:19:36.258Z,5.30
2022-10-03T17:22:13.727Z,5.40
2022-10-03T17:24:48.316Z,6.77
2022-10-03T17:27:25.676Z,5.60
2022-10-03T17:29:59.738Z,5.60
2022-10-03T17:32:35.358Z,6.73
2022-10-03T17:35:11.716Z,7.10
2022-10-03T17:37:57.474Z,6.47
2022-10-03T17:40:39.564Z,6.10
2022-10-03T17:43:18.344Z,5.67
2022-10-03T17:45:56.903Z,6.33
2022-10-03T17:48:31.369Z,6.67
2022-10-03T17:51:23.484Z,6.37
2022-10-03T17:53:57.522Z,6.70
2022-10-03T17:56:30.003Z,6.60
2022-10-03T17:59:02.915Z,6.40
2022-10-03T18:01:37.397Z,8.03
2022-10-03T18:04:08.226Z,6.27
2022-10-03T18:06:43.600Z,7.23
2022-10-03T18:09:24.379Z,6.70
2022-10-03T18:11:53.458Z,6.63
2022-10-03T18:14:31.791Z,6.50
2022-10-03T18:17:08.224Z,7.57
2022-10-03T18:19:52.953Z,7.47
2022-10-03T18:22:24.585Z,7.57
2022-10-03T18:24:55.999Z,7.87
2022-10-03T18:27:56.194Z,7.60
2022-10-03T18:30:33.065Z,8.20
2022-10-03T18:33:03.907Z,8.50
2022-10-03T18:35:36.171Z,8.17
2022-10-03T18:38:13.272Z,9.83
2022-10-03T18:40:50.147Z,8.73
2022-10-03T18:43:34.875Z,7.63
2022-10-03T18:46:20.062Z,8.13
2022-10-03T18:49:24.097Z,7.90
2022-10-03T18:51:46.951Z,7.70
2022-10-03T18:54:24.729Z,9.07
2022-10-03T18:57:04.736Z,8.60
2022-10-03T18:59:38.104Z,7.90
2022-10-03T19:02:06.428Z,9.00
2022-10-03T19:04:40.624Z,8.10
2022-10-03T19:07:17.857Z,8.07
2022-10-03T19:10:12.674Z,8.30
2022-10-03T19:12:44.111Z,7.97
2022-10-03T19:15:21.019Z,8.57
2022-10-03T19:18:02.666Z,7.20
2022-10-03T19:20:34.582Z,8.00
2022-10-03T19:23:08.765Z,7.43
2022-10-03T19:25:38.743Z,8.30
2022-10-03T19:28:14.269Z,8.37
2022-10-03T19:30:44.085Z,8.27
2022-10-03T19:33:17.272Z,8.07
2022-10-03T19:35:50.852Z,8.30
2022-10-03T19:38:21.599Z,8.00
2022-10-03T19:40:56.287Z,8.33
2022-10-03T19:43:34.607Z,8.10
2022-10-03T19:46:22.449Z,8.93
2022-10-03T19:48:54.936Z,9.07
2022-10-03T19:51:26.490Z,8.43
2022-10-03T19:53:56.577Z,8.60
2022-10-03T19:56:33.192Z,8.10
2022-10-03T19:59:05.788Z,8.57
2022-10-03T20:01:44.061Z,8.80
2022-10-03T20:04:12.914Z,8.47
2022-10-03T20:06:46.291Z,8.77
2022-10-03T20:09:23.171Z,8.00
2022-10-03T20:11:53.725Z,8.50
2022-10-03T20:14:26.876Z,9.00
2022-10-03T20:16:58.016Z,9.60
2022-10-03T20:19:28.416Z,9.97
2022-10-03T20:22:03.208Z,8.90
2022-10-03T20:24:34.511Z,8.07
2022-10-03T20:27:16.576Z,8.60
2022-10-03T20:29:50.973Z,8.53
2022-10-03T20:32:20.279Z,8.40
2022-10-03T20:34:53.656Z,8.20
2022-10-03T20:37:36.800Z,8.60
2022-10-03T20:40:16.253Z,9.00
2022-10-03T20:42:46.887Z,8.00
2022-10-03T20:45:18.373Z,8.33
2022-10-03T20:47:56.832Z,7.87
2022-10-03T20:50:28.936Z,7.70
2022-10-03T20:53:01.180Z,7.70
2022-10-03T20:55:33.219Z,8.73
2022-10-03T20:58:15.792Z,7.53
2022-10-03T21:00:47.715Z,8.53
2022-10-03T21:03:25.927Z,7.70
2022-10-03T21:05:57.073Z,7.17
2022-10-03T21:08:28.642Z,7.37
2022-10-03T21:10:59.170Z,6.63
2022-10-03T21:13:33.215Z,7.33
2022-10-03T21:16:03.495Z,6.63
2022-10-03T21:18:36.556Z,6.80
2022-10-03T21:21:09.307Z,6.93
2022-10-03T21:23:44.395Z,6.47
2022-10-03T21:26:13.193Z,6.77
2022-10-03T21:28:41.015Z,7.07
2022-10-03T21:31:27.898Z,6.40
2022-10-03T21:34:02.701Z,6.70
2022-10-03T21:36:36.953Z,6.53
2022-10-03T21:39:18.873Z,7.00
2022-10-03T21:41:59.398Z,7.20
2022-10-03T21:44:41.215Z,7.50
2022-10-03T21:47:23.048Z,7.20
2022-10-03T21:49:56.499Z,7.23
2022-10-03T21:53:00.287Z,7.20
2022-10-03T21:55:52.667Z,7.80
2022-10-03T21:58:42.561Z,7.50
2022-10-03T22:01:16.560Z,6.67
2022-10-03T22:03:52.616Z,7.13
2022-10-03T22:06:25.867Z,6.43
2022-10-03T22:08:55.011Z,6.70
2022-10-03T22:11:40.359Z,6.60
2022-10-03T22:14:19.420Z,6.47
2022-10-03T22:16:53.126Z,6.50
2022-10-03T22:19:27.426Z,6.73
2022-10-03T22:22:24.972Z,6.30
2022-10-03T22:25:05.261Z,5.67
2022-10-03T22:27:39.206Z,6.20
2022-10-03T22:30:09.754Z,6.20
2022-10-03T22:32:45.021Z,6.13
2022-10-03T22:35:30.010Z,6.70
2022-10-03T22:37:58.632Z,6.40
2022-10-03T22:40:28.153Z,6.47
2022-10-03T22:43:01.454Z,6.57
2022-10-03T22:45:32.739Z,6.10
2022-10-03T22:48:04.155Z,6.70
2022-10-03T22:50:35.983Z,6.67
2022-10-03T22:53:05.091Z,6.30
2022-10-03T22:55:33.784Z,6.00
2022-10-03T22:58:03.611Z,5.53
2022-10-03T23:00:35.553Z,5.97
2022-10-03T23:03:08.283Z,6.40
2022-10-03T23:06:01.308Z,7.43
2022-10-03T23:08:42.911Z,5.80
2022-10-03T23:11:20.270Z,6.23
2022-10-03T23:13:50.558Z,6.70
2022-10-03T23:16:31.512Z,5.53
2022-10-03T23:19:13.502Z,5.90
2022-10-03T23:21:46.527Z,5.90
2022-10-03T23:24:23.070Z,6.37
2022-10-03T23:27:39.516Z,6.30
2022-10-03T23:30:55.411Z,6.87
2022-10-03T23:33:51.012Z,6.30
2022-10-03T23:36:23.290Z,6.37
2022-10-03T23:38:59.548Z,5.77
2022-10-03T23:41:57.236Z,5.83
2022-10-03T23:44:49.580Z,6.07
2022-10-03T23:47:20.587Z,6.10
2022-10-03T23:49:52.230Z,5.73
2022-10-03T23:52:24.608Z,5.63
2022-10-03T23:54:54.437Z,5.83
2022-10-03T23:57:25.530Z,5.40
2022-10-03T23:59:53.375Z,5.73
